createdAt,value
2022-12-08T00:00:11.174Z,85991.40
2022-12-08T00:02:40.572Z,85993.80
2022-12-08T00:05:30.570Z,85990.40
2022-12-08T00:08:17.975Z,85989.20
2022-12-08T00:10:49.809Z,85991.20
2022-12-08T00:13:18.926Z,85992.00
2022-12-08T00:15:48.061Z,85984.20
2022-12-08T00:18:16.848Z,85991.40
2022-12-08T00:20:45.764Z,85994.00
2022-12-08T00:23:17.556Z,85987.80
2022-12-08T00:25:46.379Z,85983.40
2022-12-08T00:28:15.439Z,85987.80
2022-12-08T00:30:45.082Z,85991.00
2022-12-08T00:33:14.375Z,85988.20
2022-12-08T00:35:43.482Z,85990.80
2022-12-08T00:38:12.504Z,85993.40
2022-12-08T00:40:47.809Z,85998.40
2022-12-08T00:43:16.776Z,85994.00
2022-12-08T00:45:45.843Z,85995.60
2022-12-08T00:48:15.356Z,85993.60
2022-12-08T00:50:44.278Z,85996.80
2022-12-08T00:53:13.259Z,86001.20
2022-12-08T00:55:42.148Z,85999.40
2022-12-08T00:58:11.047Z,86002.60
2022-12-08T01:00:43.588Z,85999.00
2022-12-08T01:03:13.899Z,86002.80
2022-12-08T01:05:42.809Z,86001.40
2022-12-08T01:08:11.917Z,86003.20
2022-12-08T01:10:41.348Z,86004.80
2022-12-08T01:13:10.483Z,86009.40
2022-12-08T01:15:39.342Z,86008.60
2022-12-08T01:18:08.408Z,86005.40
2022-12-08T01:20:37.303Z,86012.20
2022-12-08T01:23:06.087Z,86016.60
2022-12-08T01:25:36.742Z,86018.20
2022-12-08T01:28:05.894Z,86018.60
2022-12-08T01:30:35.252Z,86019.20
2022-12-08T01:33:05.293Z,86018.40
2022-12-08T01:35:36.210Z,86023.20
2022-12-08T01:38:05.150Z,86023.00
2022-12-08T01:40:34.003Z,86028.40
2022-12-08T01:43:02.851Z,86025.80
2022-12-08T01:45:33.772Z,86020.00
2022-12-08T01:48:09.252Z,86019.60
2022-12-08T01:50:41.235Z,86021.20
2022-12-08T01:53:24.887Z,86019.40
2022-12-08T01:56:03.951Z,86015.40
2022-12-08T01:58:42.915Z,86009.20
2022-12-08T02:01:12.746Z,86010.60
2022-12-08T02:03:49.498Z,86013.40
2022-12-08T02:06:21.014Z,86016.80
2022-12-08T02:08:51.111Z,86017.00
2022-12-08T02:11:20.154Z,86006.80
2022-12-08T02:13:51.371Z,86011.60
2022-12-08T02:16:44.796Z,86001.00
2022-12-08T02:20:09.157Z,85994.80
2022-12-08T02:23:09.689Z,85995.80
2022-12-08T02:26:08.364Z,85989.40
2022-12-08T02:29:07.427Z,85989.80
2022-12-08T02:32:00.145Z,85988.80
2022-12-08T02:35:01.435Z,85986.00
2022-12-08T02:37:51.009Z,85993.60
2022-12-08T02:40:57.607Z,85991.00
2022-12-08T02:43:56.907Z,85993.60
2022-12-08T02:46:44.819Z,85994.80
2022-12-08T02:49:16.199Z,85990.40
2022-12-08T02:51:45.243Z,85986.40
2022-12-08T02:54:15.909Z,85980.40
2022-12-08T02:57:27.358Z,85979.20
2022-12-08T03:00:20.142Z,85976.40
2022-12-08T03:03:29.996Z,85981.60
2022-12-08T03:06:36.698Z,85971.20
2022-12-08T03:09:37.487Z,85967.20
2022-12-08T03:12:47.088Z,85975.40
2022-12-08T03:15:21.382Z,85976.20
2022-12-08T03:17:59.196Z,85970.60
2022-12-08T03:20:32.313Z,85981.80
2022-12-08T03:23:05.913Z,85984.00
2022-12-08T03:25:42.417Z,85975.60
2022-12-08T03:28:12.075Z,85974.20
2022-12-08T03:30:45.613Z,85973.80
2022-12-08T03:33:40.764Z,85969.80
2022-12-08T03:36:11.782Z,85971.00
2022-12-08T03:38:44.379Z,85968.60
2022-12-08T03:41:19.554Z,85976.80
2022-12-08T03:43:54.935Z,85975.40
2022-12-08T03:48:54.247Z,85969.00
2022-12-08T03:51:23.538Z,85968.80
2022-12-08T03:53:54.331Z,85965.80
2022-12-08T03:56:40.315Z,85965.00
2022-12-08T03:59:11.868Z,85972.20
2022-12-08T04:01:40.965Z,85966.20
2022-12-08T04:04:09.859Z,85971.60
2022-12-08T04:06:38.598Z,85961.60
2022-12-08T04:09:07.455Z,85967.80
2022-12-08T04:11:36.174Z,85971.00
2022-12-08T04:14:05.070Z,85974.80
2022-12-08T04:16:34.314Z,85970.60
2022-12-08T04:19:03.300Z,85966.20
2022-12-08T04:21:32.649Z,85965.00
2022-12-08T04:24:01.821Z,85968.40
2022-12-08T04:26:30.980Z,85966.60
2022-12-08T04:28:59.934Z,85959.60
2022-12-08T04:31:28.792Z,85963.00
2022-12-08T04:34:01.375Z,85962.20
2022-12-08T04:36:30.159Z,85966.60
2022-12-08T04:38:59.573Z,85962.40
2022-12-08T04:41:28.691Z,85962.40
2022-12-08T04:43:57.471Z,85963.60
2022-12-08T04:46:26.339Z,85968.00
2022-12-08T04:48:55.383Z,85969.60
2022-12-08T04:51:24.247Z,85971.40
2022-12-08T04:53:53.117Z,85966.80
2022-12-08T04:56:21.979Z,85966.20
2022-12-08T04:58:50.919Z,85968.60
2022-12-08T05:01:22.621Z,85982.60
2022-12-08T05:03:51.697Z,85979.60
2022-12-08T05:06:21.040Z,85981.60
2022-12-08T05:08:50.100Z,85981.20
2022-12-08T05:11:19.328Z,85982.00
2022-12-08T05:13:48.319Z,85979.40
2022-12-08T05:16:17.935Z,85988.00
2022-12-08T05:18:46.882Z,85987.60
2022-12-08T05:21:15.734Z,85988.60
2022-12-08T05:23:44.558Z,85986.80
2022-12-08T05:26:13.436Z,85996.00
2022-12-08T05:28:43.276Z,85988.80
2022-12-08T05:31:14.715Z,85986.00
2022-12-08T05:33:45.334Z,85993.80
2022-12-08T05:36:17.856Z,85984.00
2022-12-08T05:38:48.352Z,85988.00
2022-12-08T05:41:21.434Z,85995.40
2022-12-08T05:43:50.531Z,85994.00
2022-12-08T05:46:20.177Z,85997.20
2022-12-08T05:48:49.142Z,86005.00
2022-12-08T05:51:26.723Z,86003.00
2022-12-08T05:53:56.557Z,86008.40
2022-12-08T05:56:26.750Z,86004.00
2022-12-08T05:58:56.026Z,86007.00
2022-12-08T06:01:28.723Z,86012.60
2022-12-08T06:03:59.734Z,86010.60
2022-12-08T06:06:30.149Z,86011.40
2022-12-08T06:08:59.026Z,86008.20
2022-12-08T06:11:32.119Z,86014.00
2022-12-08T06:14:01.747Z,86015.00
2022-12-08T06:16:31.501Z,86017.20
2022-12-08T06:19:00.908Z,86020.20
2022-12-08T06:21:29.734Z,86021.20
2022-12-08T06:23:58.603Z,86020.00
2022-12-08T06:26:27.648Z,86025.00
2022-12-08T06:28:56.681Z,86016.40
2022-12-08T06:31:28.014Z,86018.00
2022-12-08T06:33:57.716Z,86022.40
2022-12-08T06:36:29.840Z,86022.00
2022-12-08T06:38:58.932Z,86028.40
2022-12-08T06:41:28.847Z,86032.60
2022-12-08T06:43:59.329Z,86033.80
2022-12-08T06:46:28.193Z,86038.20
2022-12-08T06:48:57.077Z,86032.60
2022-12-08T06:51:26.223Z,86036.00
2022-12-08T06:53:55.323Z,86038.60
2022-12-08T06:56:28.958Z,86036.60
2022-12-08T06:58:57.945Z,86033.60
2022-12-08T07:01:26.723Z,86032.60
2022-12-08T07:03:55.696Z,86032.40
2022-12-08T07:06:26.343Z,86035.80
2022-12-08T07:08:55.239Z,86034.80
2022-12-08T07:11:24.395Z,86037.40
2022-12-08T07:13:53.258Z,86035.40
2022-12-08T07:16:22.827Z,86033.40
2022-12-08T07:18:52.151Z,86029.60
2022-12-08T07:21:20.905Z,86026.00
2022-12-08T07:23:57.290Z,86029.80
2022-12-08T07:26:27.891Z,86029.40
2022-12-08T07:28:56.793Z,86029.80
2022-12-08T07:31:27.722Z,86024.60
2022-12-08T07:33:58.400Z,86026.20
2022-12-08T07:36:27.619Z,86024.20
2022-12-08T07:38:56.538Z,86022.40
2022-12-08T07:41:27.687Z,86015.60
2022-12-08T07:43:58.642Z,86014.40
2022-12-08T07:46:29.050Z,86012.80
2022-12-08T07:48:58.154Z,86014.40
2022-12-08T07:51:27.337Z,86016.40
2022-12-08T07:53:56.559Z,86012.80
2022-12-08T07:56:25.625Z,86016.40
2022-12-08T07:58:54.762Z,86018.80
2022-12-08T08:01:30.503Z,86020.60
2022-12-08T08:04:03.012Z,86019.00
2022-12-08T08:06:33.768Z,86012.40
2022-12-08T08:09:02.680Z,86013.80
2022-12-08T08:11:31.864Z,86018.00
2022-12-08T08:14:00.638Z,86019.20
2022-12-08T08:16:33.632Z,86020.40
2022-12-08T08:19:07.303Z,86017.80
2022-12-08T08:21:45.348Z,86022.40
2022-12-08T08:24:15.306Z,86021.00
2022-12-08T08:26:44.564Z,86022.00
2022-12-08T08:29:13.319Z,86023.00
2022-12-08T08:31:42.373Z,86018.40
2022-12-08T08:34:11.424Z,86022.60
2022-12-08T08:36:40.776Z,86025.20
2022-12-08T08:39:10.274Z,86020.20
2022-12-08T08:41:39.088Z,86015.60
2022-12-08T08:44:07.810Z,86020.60
2022-12-08T08:46:36.631Z,86022.80
2022-12-08T08:49:05.596Z,86020.00
2022-12-08T08:51:34.415Z,86020.80
2022-12-08T08:54:03.257Z,86012.20
2022-12-08T08:56:32.363Z,86017.80
2022-12-08T08:59:01.177Z,86009.20
2022-12-08T09:01:31.166Z,86008.80
2022-12-08T09:04:00.965Z,86008.60
2022-12-08T09:06:30.465Z,86009.20
2022-12-08T09:08:59.465Z,86006.00
2022-12-08T09:11:28.479Z,86008.80
2022-12-08T09:13:57.954Z,86016.80
2022-12-08T09:16:26.891Z,86010.40
2022-12-08T09:18:56.021Z,86013.20
2022-12-08T09:21:27.683Z,86014.40
2022-12-08T09:24:00.039Z,86013.60
2022-12-08T09:26:30.239Z,86012.40
2022-12-08T09:28:59.829Z,86012.80
2022-12-08T09:31:28.760Z,86010.80
2022-12-08T09:33:57.765Z,86006.20
2022-12-08T09:36:26.794Z,86005.20
2022-12-08T09:38:55.805Z,86005.40
2022-12-08T09:42:02.774Z,85996.00
2022-12-08T09:45:00.905Z,86001.40
2022-12-08T09:48:11.059Z,85998.20
2022-12-08T09:50:56.747Z,85996.20
2022-12-08T09:53:49.564Z,85995.20
2022-12-08T09:56:32.212Z,85994.00
2022-12-08T09:59:07.531Z,85988.40
2022-12-08T10:01:42.587Z,85983.60
2022-12-08T10:04:38.542Z,85987.00
2022-12-08T10:07:46.390Z,85985.00
2022-12-08T10:10:40.576Z,85987.60
2022-12-08T10:13:26.247Z,85987.20
2022-12-08T10:16:41.964Z,85988.80
2022-12-08T10:19:19.405Z,85990.20
2022-12-08T10:21:49.144Z,85989.00
2022-12-08T10:24:28.854Z,85989.20
2022-12-08T10:26:58.891Z,85986.00
2022-12-08T10:29:27.732Z,85986.00
2022-12-08T10:32:01.113Z,85980.60
2022-12-08T10:34:30.195Z,85978.80
2022-12-08T10:37:01.746Z,85976.40
2022-12-08T10:39:34.928Z,85983.60
2022-12-08T10:42:17.855Z,85980.00
2022-12-08T10:45:13.045Z,85975.80
2022-12-08T10:47:46.493Z,85973.20
2022-12-08T10:50:29.704Z,85965.20
2022-12-08T10:53:17.238Z,85966.20
2022-12-08T10:55:52.061Z,85958.40
2022-12-08T10:58:32.327Z,85958.40
2022-12-08T11:01:16.102Z,85957.20
2022-12-08T11:03:55.974Z,85962.60
2022-12-08T11:06:46.966Z,85960.00
2022-12-08T11:09:21.562Z,85955.20
2022-12-08T11:11:55.562Z,85953.00
2022-12-08T11:14:32.346Z,85938.60
2022-12-08T11:17:28.325Z,85938.20
2022-12-08T11:20:22.269Z,85939.40
2022-12-08T11:22:58.326Z,85940.00
2022-12-08T11:25:29.414Z,85935.20
2022-12-08T11:28:03.548Z,85939.80
2022-12-08T11:30:49.962Z,85931.60
2022-12-08T11:33:25.327Z,85936.60
2022-12-08T11:36:09.996Z,85934.00
2022-12-08T11:38:47.871Z,85927.80
2022-12-08T11:41:27.623Z,85932.60
2022-12-08T11:44:18.283Z,85928.20
2022-12-08T11:47:42.739Z,85927.60
2022-12-08T11:50:49.412Z,85925.60
2022-12-08T11:54:12.760Z,85920.00
2022-12-08T11:56:57.981Z,85916.60
2022-12-08T11:59:45.486Z,85916.80
2022-12-08T12:02:21.342Z,85913.20
2022-12-08T12:06:03.362Z,85910.20
2022-12-08T12:09:01.133Z,85910.40
2022-12-08T12:12:16.898Z,85911.60
2022-12-08T12:14:48.776Z,85909.20
2022-12-08T12:17:58.514Z,85906.00
2022-12-08T12:20:52.984Z,85905.80
2022-12-08T12:23:38.196Z,85906.80
2022-12-08T12:26:18.246Z,85895.00
2022-12-08T12:29:03.638Z,85896.60
2022-12-08T12:31:48.557Z,85891.40
2022-12-08T12:34:52.137Z,85889.20
2022-12-08T12:37:25.625Z,85878.80
2022-12-08T12:39:54.491Z,85882.00
2022-12-08T12:42:52.408Z,85875.00
2022-12-08T12:45:21.368Z,85872.40
2022-12-08T12:47:56.843Z,85876.60
2022-12-08T12:50:51.517Z,85872.20
2022-12-08T12:53:20.190Z,85867.60
2022-12-08T12:56:04.836Z,85863.60
2022-12-08T12:58:33.573Z,85858.20
2022-12-08T13:01:14.258Z,85850.60
2022-12-08T13:04:10.171Z,85850.60
2022-12-08T13:06:52.363Z,85847.20
2022-12-08T13:09:29.040Z,85852.00
2022-12-08T13:12:09.293Z,85853.60
2022-12-08T13:14:52.093Z,85845.00
2022-12-08T13:17:39.365Z,85835.40
2022-12-08T13:20:23.874Z,85830.80
2022-12-08T13:22:55.640Z,85836.00
2022-12-08T13:25:45.706Z,85831.40
2022-12-08T13:28:32.201Z,85827.20
2022-12-08T13:31:05.856Z,85827.60
2022-12-08T13:33:42.459Z,85828.00
2022-12-08T13:36:39.224Z,85826.40
2022-12-08T13:39:17.024Z,85834.40
2022-12-08T13:42:00.236Z,85828.00
2022-12-08T13:57:08.599Z,85823.60
2022-12-08T13:59:46.648Z,85819.40
2022-12-08T14:02:40.778Z,85819.80
2022-12-08T14:05:18.567Z,85823.20
2022-12-08T14:07:53.419Z,85822.40
2022-12-08T14:10:28.337Z,85820.20
2022-12-08T14:13:05.903Z,85820.60
2022-12-08T14:15:38.302Z,85828.00
2022-12-08T14:18:26.018Z,85817.80
2022-12-08T14:21:21.157Z,85823.60
2022-12-08T14:23:50.415Z,85817.40
2022-12-08T14:26:19.374Z,85811.00
2022-12-08T14:28:48.124Z,85804.20
2022-12-08T14:31:19.350Z,85809.60
2022-12-08T14:33:53.304Z,85806.40
2022-12-08T14:36:25.916Z,85800.80
2022-12-08T14:38:57.901Z,85801.40
2022-12-08T14:41:34.224Z,85803.60
2022-12-08T14:44:03.729Z,85796.20
2022-12-08T14:46:32.747Z,85801.80
2022-12-08T14:49:01.618Z,85786.40
2022-12-08T14:51:35.002Z,85791.60
2022-12-08T14:54:15.656Z,85805.40
2022-12-08T14:56:57.978Z,85795.60
2022-12-08T14:59:42.030Z,85793.60
2022-12-08T15:02:21.425Z,85792.80
2022-12-08T15:04:57.658Z,85794.40
2022-12-08T15:07:35.870Z,85794.40
2022-12-08T15:10:26.215Z,85785.60
2022-12-08T15:13:13.350Z,85788.40
2022-12-08T15:15:57.040Z,85782.00
2022-12-08T15:18:41.723Z,85784.20
2022-12-08T15:21:14.037Z,85779.60
2022-12-08T15:23:48.299Z,85784.60
2022-12-08T15:26:26.953Z,85781.00
2022-12-08T15:28:57.190Z,85780.20
2022-12-08T15:31:26.159Z,85782.60
2022-12-08T15:33:55.593Z,85781.40
2022-12-08T15:36:24.555Z,85769.60
2022-12-08T15:38:53.478Z,85776.00
2022-12-08T15:41:22.279Z,85772.20
2022-12-08T15:43:52.226Z,85769.00
2022-12-08T15:46:21.118Z,85765.00
2022-12-08T15:48:54.932Z,85772.60
2022-12-08T15:51:26.922Z,85768.60
2022-12-08T15:53:56.588Z,85774.60
2022-12-08T15:56:28.600Z,85774.00
2022-12-08T15:58:58.357Z,85770.80
2022-12-08T16:01:28.389Z,85769.00
2022-12-08T16:07:22.857Z,85766.80
2022-12-08T16:09:44.649Z,85763.60
2022-12-08T16:13:40.388Z,85761.80
2022-12-08T16:15:51.627Z,85755.20
2022-12-08T16:18:29.036Z,85751.80
2022-12-08T16:21:09.537Z,85744.60
2022-12-08T16:23:46.330Z,85741.60
2022-12-08T16:27:35.031Z,85741.40
2022-12-08T16:29:21.826Z,85738.60
2022-12-08T16:31:51.438Z,85737.60
2022-12-08T16:34:20.797Z,85731.00
2022-12-08T16:36:49.853Z,85736.20
2022-12-08T16:39:18.861Z,85735.40
2022-12-08T16:42:05.772Z,85738.20
2022-12-08T16:44:34.517Z,85735.60
2022-12-08T16:47:10.890Z,85735.00
2022-12-08T16:49:40.416Z,85739.00
2022-12-08T16:52:09.463Z,85742.80
2022-12-08T16:54:39.204Z,85749.80
2022-12-08T16:57:08.057Z,85750.00
2022-12-08T16:59:38.691Z,85751.60
2022-12-08T17:02:10.368Z,85745.40
2022-12-08T17:04:41.456Z,85747.80
2022-12-08T17:07:10.448Z,85749.20
2022-12-08T17:09:39.250Z,85742.60
2022-12-08T17:12:08.067Z,85758.80
2022-12-08T17:14:37.202Z,85757.00
2022-12-08T17:17:07.120Z,85757.40
2022-12-08T17:19:36.479Z,85758.60
2022-12-08T17:22:07.206Z,85759.80
2022-12-08T17:24:35.973Z,85754.40
2022-12-08T17:27:07.317Z,85750.00
2022-12-08T17:29:36.708Z,85750.80
2022-12-08T17:32:05.932Z,85753.60
2022-12-08T17:34:34.807Z,85745.40
2022-12-08T17:37:03.744Z,85747.80
2022-12-08T17:39:33.594Z,85749.60
2022-12-08T17:42:02.485Z,85747.60
2022-12-08T17:44:32.979Z,85749.80
2022-12-08T17:47:03.088Z,85741.40
2022-12-08T17:49:33.946Z,85745.20
2022-12-08T17:52:07.770Z,85740.80
2022-12-08T17:54:37.471Z,85733.80
2022-12-08T17:57:06.579Z,85726.00
2022-12-08T17:59:35.530Z,85728.40
2022-12-08T18:02:05.260Z,85722.80
2022-12-08T18:04:34.038Z,85725.80
2022-12-08T18:07:04.374Z,85724.40
2022-12-08T18:09:34.568Z,85719.00
2022-12-08T18:12:04.094Z,85715.00
2022-12-08T18:14:33.248Z,85705.40
2022-12-08T18:17:02.159Z,85696.20
2022-12-08T18:19:31.213Z,85686.80
2022-12-08T18:22:00.191Z,85691.40
2022-12-08T18:24:30.482Z,85689.20
2022-12-08T18:27:02.132Z,85688.60
2022-12-08T18:29:30.892Z,85686.20
2022-12-08T18:31:59.793Z,85689.00
2022-12-08T18:34:28.930Z,85679.80
2022-12-08T18:36:57.740Z,85676.80
2022-12-08T18:39:29.341Z,85675.20
2022-12-08T18:42:02.186Z,85677.40
2022-12-08T18:44:31.357Z,85664.60
2022-12-08T18:47:00.134Z,85647.00
2022-12-08T18:49:28.879Z,85652.60
2022-12-08T18:51:57.804Z,85642.60
2022-12-08T18:54:37.130Z,85644.00
2022-12-08T18:57:18.469Z,85649.40
2022-12-08T18:59:47.389Z,85645.40
2022-12-08T19:02:16.745Z,85636.00
2022-12-08T19:04:46.172Z,85626.20
2022-12-08T19:07:18.111Z,85628.00
2022-12-08T19:09:47.211Z,85618.80
2022-12-08T19:12:15.941Z,85616.80
2022-12-08T19:14:45.442Z,85614.80
2022-12-08T19:17:14.244Z,85606.60
2022-12-08T19:19:43.233Z,85612.40
2022-12-08T19:22:13.185Z,85612.80
2022-12-08T19:24:42.387Z,85614.00
2022-12-08T19:27:11.315Z,85613.00
2022-12-08T19:29:40.176Z,85615.00
2022-12-08T19:32:09.018Z,85622.60
2022-12-08T19:34:38.014Z,85617.20
2022-12-08T19:37:07.670Z,85607.60
2022-12-08T19:39:55.183Z,85603.20
2022-12-08T19:42:42.130Z,85597.40
2022-12-08T19:45:23.660Z,85593.20
2022-12-08T19:47:52.751Z,85591.40
2022-12-08T19:50:37.284Z,85589.20
2022-12-08T19:53:13.656Z,85582.80
2022-12-08T19:55:45.488Z,85575.60
2022-12-08T19:58:14.870Z,85583.00
2022-12-08T20:00:45.297Z,85583.00
2022-12-08T20:03:21.036Z,85582.40
2022-12-08T20:05:54.203Z,85587.20
2022-12-08T20:08:26.244Z,85592.00
2022-12-08T20:10:57.103Z,85586.00
2022-12-08T20:13:48.609Z,85585.20
2022-12-08T20:16:19.157Z,85585.80
2022-12-08T20:18:49.522Z,85583.40
2022-12-08T20:21:18.967Z,85584.60
2022-12-08T20:23:50.566Z,85582.00
2022-12-08T20:26:23.087Z,85582.20
2022-12-08T20:28:52.493Z,85573.00
2022-12-08T20:31:30.194Z,85568.60
2022-12-08T20:34:00.250Z,85576.60
2022-12-08T20:36:30.031Z,85564.60
2022-12-08T20:38:58.944Z,85566.80
2022-12-08T20:41:27.789Z,85561.60
2022-12-08T20:44:00.143Z,85561.20
2022-12-08T20:46:30.176Z,85554.60
2022-12-08T20:49:02.141Z,85553.80
2022-12-08T20:51:32.833Z,85556.60
2022-12-08T20:54:02.439Z,85549.40
2022-12-08T20:56:33.528Z,85544.80
2022-12-08T20:59:03.283Z,85542.80
2022-12-08T21:01:32.510Z,85540.20
2022-12-08T21:04:02.861Z,85534.20
2022-12-08T21:06:31.889Z,85534.60
2022-12-08T21:09:01.624Z,85528.60
2022-12-08T21:11:30.889Z,85524.80
2022-12-08T21:14:00.748Z,85528.80
2022-12-08T21:16:29.830Z,85527.80
2022-12-08T21:18:58.912Z,85525.80
2022-12-08T21:21:27.994Z,85519.00
2022-12-08T21:23:57.024Z,85526.20
2022-12-08T21:26:30.001Z,85519.80
2022-12-08T21:29:02.296Z,85518.80
2022-12-08T21:31:32.849Z,85516.00
2022-12-08T21:34:04.755Z,85506.20
2022-12-08T21:36:34.423Z,85505.60
2022-12-08T21:39:03.697Z,85498.20
2022-12-08T21:41:50.694Z,85492.20
2022-12-08T21:44:19.786Z,85492.80
2022-12-08T21:46:49.244Z,85500.60
2022-12-08T21:49:18.981Z,85493.60
2022-12-08T21:51:48.152Z,85493.80
2022-12-08T21:54:21.163Z,85497.40
2022-12-08T21:56:51.993Z,85495.80
2022-12-08T21:59:21.942Z,85492.20
2022-12-08T22:01:50.948Z,85492.20
2022-12-08T22:04:22.605Z,85496.60
2022-12-08T22:06:51.691Z,85491.40
2022-12-08T22:09:21.032Z,85489.20
2022-12-08T22:11:50.185Z,85487.60
2022-12-08T22:14:19.290Z,85478.20
2022-12-08T22:16:48.960Z,85473.00
2022-12-08T22:19:18.046Z,85469.20
2022-12-08T22:21:48.121Z,85469.80
2022-12-08T22:24:20.217Z,85461.20
2022-12-08T22:26:49.126Z,85456.40
2022-12-08T22:29:18.409Z,85452.60
2022-12-08T22:31:47.233Z,85448.80
2022-12-08T22:34:16.170Z,85446.20
2022-12-08T22:36:45.525Z,85440.80
2022-12-08T22:39:14.745Z,85444.60
2022-12-08T22:41:43.824Z,85442.60
2022-12-08T22:44:17.454Z,85438.00
2022-12-08T22:46:46.807Z,85431.20
2022-12-08T22:49:15.766Z,85433.60
2022-12-08T22:51:44.873Z,85428.80
2022-12-08T22:54:14.180Z,85428.40
2022-12-08T22:56:43.120Z,85431.60
2022-12-08T22:59:11.951Z,85428.20
2022-12-08T23:01:41.209Z,85430.80
2022-12-08T23:04:17.391Z,85424.60
2022-12-08T23:06:46.936Z,85424.80
2022-12-08T23:09:16.105Z,85422.00
2022-12-08T23:11:47.446Z,85423.80
2022-12-08T23:14:16.847Z,85427.60
2022-12-08T23:16:46.631Z,85419.60
2022-12-08T23:19:15.730Z,85418.80
2022-12-08T23:21:44.996Z,85418.20
2022-12-08T23:24:14.108Z,85413.60
2022-12-08T23:26:45.715Z,85415.20
2022-12-08T23:29:14.816Z,85410.60
2022-12-08T23:31:43.676Z,85402.40
2022-12-08T23:34:13.387Z,85400.40
2022-12-08T23:36:42.902Z,85404.60
2022-12-08T23:39:13.211Z,85402.20
2022-12-08T23:41:42.289Z,85409.00
2022-12-08T23:44:12.938Z,85408.40
2022-12-08T23:46:42.185Z,85417.20
2022-12-08T23:49:12.659Z,85409.20
2022-12-08T23:51:44.249Z,85402.40
2022-12-08T23:54:13.386Z,85394.80
2022-12-08T23:56:43.630Z,85395.60
2022-12-08T23:59:13.122Z,85389.80
